KTQE

Tekamah Municipal Airport

Tekamah, Nebraska, USA
METAR KTQE 182230Z AUTO 11003KT 2SM VCTS -RA SCT047 BKN065 BKN080 23/20 A2985 RMK AO2 LTG DSNT SE-SW RAB18 TSB10E28 PRESFR P0007 T02280200
Observed Flight Rules
Jun-18 @ 22:30 UTC (17 minutes ago) Instrument Flight Rules
Wind Visibility Clouds Conditions
110° at 3 knots 2 miles
  • Scattered at 4,700' AGL
  • Broken at 6,500' AGL
  • Broken at 8,000' AGL
  • Area Thunderstorm
  • Light Rain
Temperatures Readings Precipitation
Current 23°C / 73°F
Dewpoint 20°C / 68°F
Humidity 83%
Altimeter 29.85" Hg
Pressure 1011 hPa
Elevation 312
Current Rain 0.07
METAR KTQE 182230Z AUTO 11003KT 2SM VCTS -RA SCT047 BKN065 BKN080 23/20 A2985 RMK AO2 LTG DSNT SE-SW RAB18 TSB10E28 PRESFR P0007 T02280200
Observed Flight Rules
Jun-18 @ 22:30 UTC
(17 minutes ago)
IFR
Wind Visibility
110° at 3 knots 2 miles
Clouds
  • Scattered at 4,700' AGL
  • Broken at 6,500' AGL
  • Broken at 8,000' AGL
Conditions
  • Area Thunderstorm
  • Light Rain
Temperature Dewpoint
23°C / 73°F 20°C / 68°F
Humidity Altimeter Pressure
83% 29.85" Hg 1011 hPa
Current Rain
0.07